»·PEaware :: AAL3763 KPHX-KSAN

AAL3763 :: KPHX-KSAN

FLIGHT INFORMATION

Flight Status: Arrived
Operator:
American Airlines
More flights by this operator :: More flights under this callsign
Pilot: Sergei F. (8485)
Aircraft: AIRBUS A320
(A320)
More flights by this aircraft type
Origin: KPHX Phoenix Sky Harbor Intl
United States
Destination: KSAN San Diego Intl-Lindbergh
United States
More flights between these airports :: More routes between these airports
Route: +FYRBD1 MOHAK J2 HOGGZ LUCKI1
File this flight plan on PilotEdge
Remarks:
Altitude:
(Current/Filed)
28,000ft
Speed:
(Current/Filed)
400kts
Departed: 10-Jan-20 06:42 PM
Arrived: 10-Jan-20 07:31 PM
Distance/Time
Traveled:
264nm/0:49
Distance/Time
To Go:
Arrived

Flight Plot

Page will automatically refresh every two minutes.


Map Options




Map Legend


Flown Route
Filed Route
Departure Airport
Arrival Airport
Navaid (VOR, NDB)
Fix

Horizontal Profiles

Position Reports

Time Latitude Longitude Heading Altitude Ground
Speed
10-Jan-20 18:32 33.433744 -111.996211 309 1128ft 0kts
10-Jan-20 18:33 33.433744 -111.996211 309 1128ft 0kts
10-Jan-20 18:34 33.433744 -111.996210 309 1128ft 0kts
10-Jan-20 18:35 33.433733 -111.995858 228 1128ft 2kts
10-Jan-20 18:36 33.433970 -111.995757 173 1128ft 0kts
10-Jan-20 18:37 33.433970 -111.995757 173 1128ft 0kts
10-Jan-20 18:38 33.433298 -111.995656 172 1128ft 10kts
10-Jan-20 18:39 33.432061 -111.992672 222 1128ft 4kts
10-Jan-20 18:40 33.431634 -111.993156 225 1128ft 12kts
10-Jan-20 18:41 33.431109 -112.014079 271 1358ft 161kts
10-Jan-20 18:42 33.425055 -112.082017 252 4616ft 217kts
10-Jan-20 18:43 33.391219 -112.170092 219 7854ft 287kts
10-Jan-20 18:44 33.293574 -112.161131 158 11092ft 341kts
10-Jan-20 18:45 33.205147 -112.200539 247 12343ft 393kts
10-Jan-20 18:46 33.180394 -112.326733 244 14701ft 408kts
10-Jan-20 18:47 33.109978 -112.437630 237 16800ft 426kts
10-Jan-20 18:48 33.036870 -112.550247 238 18737ft 437kts
10-Jan-20 18:49 32.963713 -112.667220 250 20552ft 435kts
10-Jan-20 18:50 32.939088 -112.803655 268 22188ft 425kts
10-Jan-20 18:51 32.920160 -112.943491 267 23829ft 429kts
10-Jan-20 18:52 32.901080 -113.083162 266 25214ft 434kts
10-Jan-20 18:53 32.881453 -113.225675 266 26368ft 440kts
10-Jan-20 18:54 32.861376 -113.370041 266 27608ft 441kts
10-Jan-20 18:55 32.841415 -113.512328 266 28217ft 435kts
10-Jan-20 18:56 32.821294 -113.654798 266 28241ft 438kts
10-Jan-20 18:57 32.800899 -113.797946 266 28257ft 439kts
10-Jan-20 18:58 32.780440 -113.940364 266 28251ft 439kts
10-Jan-20 18:59 32.775451 -114.082849 277 28256ft 430kts
10-Jan-20 19:00 32.781160 -114.225068 278 28251ft 429kts
10-Jan-20 19:01 32.786980 -114.366210 281 28250ft 427kts
10-Jan-20 19:02 32.818820 -114.500014 292 28261ft 420kts
10-Jan-20 19:03 32.854981 -114.631761 292 28256ft 419kts
10-Jan-20 19:04 32.878598 -114.767283 274 28260ft 432kts
10-Jan-20 19:05 32.875322 -114.909721 273 28265ft 431kts
10-Jan-20 19:06 32.878491 -115.051213 288 28254ft 423kts
10-Jan-20 19:07 32.915697 -115.183432 292 25889ft 430kts
10-Jan-20 19:08 32.954458 -115.315283 292 24282ft 407kts
10-Jan-20 19:09 32.985939 -115.435275 276 24256ft 376kts
10-Jan-20 19:10 32.957504 -115.557838 256 24264ft 387kts
10-Jan-20 19:11 32.923373 -115.679404 256 22928ft 385kts
10-Jan-20 19:12 32.891244 -115.793805 256 21581ft 358kts
10-Jan-20 19:13 32.860086 -115.904731 255 19665ft 350kts
10-Jan-20 19:14 32.829613 -116.012741 255 17800ft 342kts
10-Jan-20 19:15 32.799618 -116.118646 255 15964ft 335kts
10-Jan-20 19:16 32.770176 -116.222223 254 14176ft 327kts
10-Jan-20 19:17 32.749060 -116.323989 267 12671ft 309kts
10-Jan-20 19:18 32.741274 -116.424358 267 11049ft 302kts
10-Jan-20 19:19 32.733613 -116.519326 266 10098ft 276kts
10-Jan-20 19:20 32.724916 -116.608485 266 8770ft 270kts
10-Jan-20 19:21 32.717052 -116.695059 266 7476ft 264kts
10-Jan-20 19:22 32.710402 -116.780764 266 6243ft 257kts
10-Jan-20 19:23 32.694893 -116.858330 251 5674ft 230kts
10-Jan-20 19:24 32.674504 -116.927938 267 4996ft 212kts
10-Jan-20 19:25 32.685660 -116.991117 286 4066ft 190kts
10-Jan-20 19:26 32.699494 -117.048752 287 2607ft 162kts
10-Jan-20 19:27 32.709903 -117.092293 287 1599ft 132kts
10-Jan-20 19:28 32.720019 -117.134051 288 942ft 131kts
10-Jan-20 19:29 32.729909 -117.174595 288 135ft 131kts
10-Jan-20 19:30 32.735276 -117.197689 252 26ft 15kts
10-Jan-20 19:31 32.734898 -117.198996 251 26ft 0kts
10-Jan-20 19:32 32.734263 -117.199610 192 26ft 5kts
10-Jan-20 19:33 32.733382 -117.199136 116 26ft 2kts
10-Jan-20 19:34 32.733345 -117.199047 117 26ft 0kts
10-Jan-20 19:35 32.733345 -117.199047 117 26ft 0kts

Navigation Log

Ident Type
Flight plan parsing failed, navigation log unavailable